Главная страница
METAR-TAF:

METAR-TAF

Аэропорты :

Уппсала, Швеция

широта: 59-53N, долгота: 017-36E, высота над уровнем моря: 21 м

Текущие метеонаблюдения

Эта сводка был подготовлена 17 минут назад, в 10:20 UTC
Ветер 10 Узел от южный
Температура 19°C
Влажность 68%
Давление 999 hPa
Видимость 10 км и более
Нет облачности ниже 1500 м, и нет кучево-дождевой облачности

METAR: ESCM 241020Z 17010KT CAVOK 19/13 Q0999

Время: 12:37 (10:37 UTC)

Прогноз

Эта сводка был подготовлена 2 часа и 12 минут назад, в 08:25 UTC
Прогноз действительный с 24-го 09 UTC до 24-го 18 UTC
Ветер 7 Узел от южный
Видимость 10 км и более
Нет облачности ниже 1500 м, и нет кучево-дождевой облачности
временами
С 24-го 15 UTC до 24-го 18 UTC
Видимость: 3000 м
Рассеянная облачность на высоте 1000 фута
Рассеянная облачность на высоте 3000 фута, Кучево-дождевые.
ливневые дожди

TAF: ESCM 240825Z 2409/2418 17007KT CAVOK TEMPO 2415/2418 3000 SHRA BKN010 BKN030CB RMK MIL

Метеонаблюдения и прогнозы для более 4000 аэропортов (сводки METAR и TAF).

Имеющиеся станции представлены на карте желтыми и красными точками.

Чтобы увидеть название станции, наведите на нее мышь.

Затем щелкните, чтобы увидеть метеонаблюдения и метеопрогнозы.

Управление картой: чтобы увеличить масштаб, щелкните зеленые кнопки с черным крестиком; чтобы уменьшить масштаб, щелкните зеленую кнопку с тире; для просмотра соседних карт щелкайте зеленые стрелки.


METAR-TAF: